Aviation Digital Data Service (ADDS)

Output produced by METARs form (0423 UTC 26 June 2019)
found at http://www.aviationweather.gov/metar/data/
 
Forecast for: CYYH (SPENCE BAY AIRPO, NU, CA)
Text: TAF CYYH 252338Z 2600/2612 06008KT P6SM FEW020 RMK NXT FCST BY 260600Z
Forecast period: 0000 to 1200 UTC 26 June 2019
Forecast type: FROM: standard forecast or significant change
Winds: from the ENE (60 degrees) at 9 MPH (8 knots; 4.1 m/s)
Visibility: 6 or more miles 10+ km)
Ceiling: at least 12,000 feet AGL
Clouds: few clouds at 2000 feet AGL
Weather: no significant weather forecast for this period